Time;durP1;ratioP1;P1;durP2;ratioP2;P2;SDS_P1;SDS_P2;PMS_P1;PMS_P2;Temp;Humidity;BMP_temperature;BMP_pressure;BME280_temperature;BME280_humidity;BME280_pressure;Samples;Min_cycle;Max_cycle;Signal;HPM_P1;HPM_P2
2022/09/07 00:01:22;;;;;;;6.40;2.38;;;;;;;25.94;56.99;101367.00;5055598;28;20067;-71
2022/09/07 00:03:47;;;;;;;7.43;3.13;;;;;;;25.65;58.47;101362.63;5035942;28;20075;-72
2022/09/07 00:06:13;;;;;;;8.68;2.92;;;;;;;26.38;57.10;101376.59;5050953;28;20546;-72
2022/09/07 00:08:42;;;;;;;5.80;2.97;;;;;;;26.13;55.58;101362.19;5032089;28;20116;-72
2022/09/07 00:11:13;;;;;;;5.63;2.53;;;;;;;26.12;57.72;101359.59;5053313;28;20040;-72
2022/09/07 00:13:40;;;;;;;5.40;2.85;;;;;;;26.42;56.13;101352.16;5037357;28;20383;-71
2022/09/07 00:16:18;;;;;;;6.88;3.05;;;;;;;25.68;54.50;101342.84;5050811;28;20408;-72
2022/09/07 00:18:44;;;;;;;4.95;2.90;;;;;;;25.28;59.79;101340.03;5050895;28;20028;-71
2022/09/07 00:21:10;;;;;;;7.75;3.05;;;;;;;25.89;56.92;101317.28;5046149;28;20498;-71
2022/09/07 00:23:37;;;;;;;7.45;3.03;;;;;;;25.29;60.62;101309.66;5031474;28;20040;-71
2022/09/07 00:26:09;;;;;;;5.45;2.47;;;;;;;26.47;54.14;101297.38;5032555;28;20029;-71
2022/09/07 00:28:35;;;;;;;8.75;2.67;;;;;;;26.54;52.91;101280.75;5055942;28;20028;-71
2022/09/07 00:31:01;;;;;;;5.07;2.55;;;;;;;25.14;58.92;101285.63;5068402;28;20032;-73
2022/09/07 00:33:27;;;;;;;6.43;3.65;;;;;;;24.67;66.64;101273.47;5038991;28;20031;-71
2022/09/07 00:35:53;;;;;;;5.80;2.70;;;;;;;25.57;60.37;101265.94;5057902;28;20036;-71
2022/09/07 00:38:18;;;;;;;8.23;3.28;;;;;;;25.15;62.08;101262.41;5053290;28;20044;-71
2022/09/07 00:40:44;;;;;;;6.03;3.70;;;;;;;25.91;60.55;101256.47;5060506;28;20040;-71
2022/09/07 00:43:17;;;;;;;6.80;3.30;;;;;;;26.39;55.85;101260.38;5052526;28;20025;-71
2022/09/07 00:45:42;;;;;;;6.75;2.67;;;;;;;25.53;57.66;101270.63;5057230;28;20060;-72
2022/09/07 00:48:16;;;;;;;4.20;2.15;;;;;;;25.44;58.11;101273.06;5048738;28;20396;-70
2022/09/07 00:50:47;;;;;;;4.53;2.10;;;;;;;27.00;51.81;101286.50;5045494;28;20016;-71
2022/09/07 00:53:26;;;;;;;2.97;2.35;;;;;;;26.94;52.31;101297.66;5045461;28;20499;-71
2022/09/07 00:55:53;;;;;;;4.22;2.10;;;;;;;26.26;52.48;101291.69;5069108;28;20020;-71
2022/09/07 00:58:21;;;;;;;4.85;2.55;;;;;;;26.78;51.80;101298.78;5067099;28;20111;-71
2022/09/07 01:00:48;;;;;;;6.47;2.58;;;;;;;27.19;50.69;101297.59;5072241;28;20091;-71
2022/09/07 01:03:17;;;;;;;5.13;2.70;;;;;;;26.97;51.81;101305.47;5053432;28;20459;-71
2022/09/07 01:05:47;;;;;;;5.15;2.60;;;;;;;26.01;53.63;101294.19;5043477;28;20489;-72
2022/09/07 01:08:13;;;;;;;5.22;2.78;;;;;;;26.86;51.46;101290.16;5059010;28;20103;-71
2022/09/07 01:10:39;;;;;;;5.90;3.00;;;;;;;26.90;50.75;101294.34;5060567;28;20032;-71
2022/09/07 01:13:05;;;;;;;4.28;2.63;;;;;;;27.57;49.00;101301.13;5058974;28;20024;-70
2022/09/07 01:16:10;;;;;;;5.90;2.58;;;;;;;27.92;48.20;101306.50;5067573;28;20078;-71
2022/09/07 01:18:56;;;;;;;7.03;2.92;;;;;;;27.92;47.90;101311.88;5018550;28;20040;-71
2022/09/07 01:21:39;;;;;;;5.65;2.90;;;;;;;28.00;48.07;101329.28;5053809;28;20091;-73
2022/09/07 01:24:16;;;;;;;5.97;3.35;;;;;;;28.22;47.17;101318.59;5053625;28;20044;-71
2022/09/07 01:27:09;;;;;;;5.65;2.80;;;;;;;28.80;45.20;101312.34;5054997;28;20044;-70
2022/09/07 01:30:06;;;;;;;5.28;2.75;;;;;;;28.63;44.86;101321.72;5044491;28;20028;-71
2022/09/07 01:33:16;;;;;;;4.22;2.58;;;;;;;28.18;46.25;101317.13;5052543;28;20484;-71
2022/09/07 01:36:00;;;;;;;5.20;3.45;;;;;;;28.37;46.39;101315.69;5040667;28;20074;-71
2022/09/07 01:38:41;;;;;;;4.82;2.03;;;;;;;28.23;46.50;101319.44;5037946;28;20120;-71
2022/09/07 01:41:15;;;;;;;6.40;2.47;;;;;;;28.60;45.57;101316.56;5044453;28;20029;-71
2022/09/07 01:43:59;;;;;;;2.83;2.53;;;;;;;28.87;45.16;101320.78;5051944;28;20036;-71
2022/09/07 01:46:32;;;;;;;4.90;2.75;;;;;;;28.86;45.41;101316.38;5055934;28;20045;-71
2022/09/07 01:49:08;;;;;;;6.35;2.78;;;;;;;29.08;45.02;101315.47;5066638;28;20492;-71
2022/09/07 01:51:37;;;;;;;7.13;2.58;;;;;;;28.60;45.92;101317.44;5039055;28;20061;-71
2022/09/07 01:54:27;;;;;;;4.70;3.10;;;;;;;28.68;45.49;101319.53;5057413;28;20024;-71
2022/09/07 01:56:59;;;;;;;8.10;2.85;;;;;;;27.92;47.20;101328.00;5055783;28;20025;-72
2022/09/07 01:59:28;;;;;;;;;;;;;;;28.57;45.56;101314.97;5061188;28;20025;-71
2022/09/07 02:02:00;;;;;;;5.78;3.97;;;;;;;29.06;44.92;101317.47;5046568;28;20007;-71
2022/09/07 02:04:50;;;;;;;5.43;3.58;;;;;;;29.05;44.53;101313.88;5057923;28;20032;-70
2022/09/07 02:07:19;;;;;;;6.18;3.15;;;;;;;28.44;46.37;101311.56;5073256;28;20028;-71
2022/09/07 02:09:59;;;;;;;4.95;3.22;;;;;;;29.06;45.25;101304.00;5067649;28;20033;-70
2022/09/07 02:12:58;;;;;;;5.75;3.08;;;;;;;28.77;45.57;101307.22;5035135;28;20024;-71
2022/09/07 02:15:37;;;;;;;6.07;2.70;;;;;;;28.68;44.92;101308.78;5063460;28;20033;-71
2022/09/07 02:18:06;;;;;;;4.72;2.60;;;;;;;28.66;44.40;101304.50;5052193;28;20031;-71
2022/09/07 02:20:36;;;;;;;5.65;2.53;;;;;;;28.70;45.48;101297.91;5056188;28;20040;-71
2022/09/07 02:23:12;;;;;;;3.13;1.92;;;;;;;28.68;44.78;101295.34;5065824;28;20060;-71
2022/09/07 02:25:44;;;;;;;3.65;2.53;;;;;;;28.60;44.80;101301.31;5044124;28;20036;-70
2022/09/07 02:28:15;;;;;;;4.50;2.10;;;;;;;28.22;45.93;101310.53;5059542;28;20032;-71
2022/09/07 02:30:41;;;;;;;4.15;2.28;;;;;;;28.81;44.28;101308.69;5056622;28;20464;-71
2022/09/07 02:33:06;;;;;;;1.98;1.80;;;;;;;29.15;43.89;101316.69;5034214;28;20013;-71
2022/09/07 02:35:33;;;;;;;3.13;2.00;;;;;;;28.46;45.12;101328.41;5061762;28;20023;-71
2022/09/07 02:38:02;;;;;;;3.72;2.10;;;;;;;28.33;45.63;101325.84;5033736;28;20056;-71
2022/09/07 02:40:27;;;;;;;3.88;2.00;;;;;;;28.80;44.80;101328.47;5059239;28;20070;-71
2022/09/07 02:42:54;;;;;;;4.88;2.42;;;;;;;29.01;44.30;101325.03;5043430;28;20032;-70
2022/09/07 02:45:20;;;;;;;4.03;2.17;;;;;;;28.75;45.03;101325.28;5041070;28;20036;-71
2022/09/07 02:47:48;;;;;;;3.13;2.63;;;;;;;28.72;45.00;101312.94;5046219;28;20036;-70
2022/09/07 02:50:29;;;;;;;3.05;2.10;;;;;;;28.70;45.41;101305.97;5069466;28;20040;-71
2022/09/07 02:53:12;;;;;;;3.83;2.30;;;;;;;28.58;45.66;101316.69;5061507;28;20145;-71
2022/09/07 02:56:11;;;;;;;4.13;2.20;;;;;;;28.55;45.47;101314.25;5036761;28;20100;-71
2022/09/07 02:58:58;;;;;;;2.60;2.28;;;;;;;28.99;44.34;101316.22;5050412;28;20032;-71
2022/09/07 03:01:45;;;;;;;4.63;2.30;;;;;;;28.83;44.21;101319.31;5070920;28;20032;-71
2022/09/07 03:04:28;;;;;;;5.00;3.25;;;;;;;28.92;43.93;101311.34;5035382;28;20024;-71
2022/09/07 03:07:11;;;;;;;3.30;2.55;;;;;;;28.37;44.99;101315.69;5051805;28;20040;-71
2022/09/07 03:09:38;;;;;;;;;;;;;;;28.36;45.70;101305.94;5070584;28;20066;-71
2022/09/07 03:12:06;;;;;;;5.40;2.40;;;;;;;28.52;44.90;101298.38;5051796;28;19916;-71
2022/09/07 03:14:35;;;;;;;4.57;2.50;;;;;;;28.46;45.10;101298.00;5057116;28;20031;-71
2022/09/07 03:17:01;;;;;;;4.07;2.33;;;;;;;28.24;45.68;101294.28;5065578;28;20024;-71
2022/09/07 03:19:26;;;;;;;4.00;2.55;;;;;;;28.73;44.59;101290.44;5032778;28;20032;-71
2022/09/07 03:21:52;;;;;;;3.20;2.80;;;;;;;28.72;44.09;101287.88;5051634;28;20104;-71
2022/09/07 03:24:17;;;;;;;4.03;3.20;;;;;;;27.81;45.77;101293.06;5033165;28;20418;-71
2022/09/07 03:26:45;;;;;;;3.63;2.63;;;;;;;28.14;45.82;101277.16;5045205;28;20044;-70
2022/09/07 03:29:11;;;;;;;3.28;2.70;;;;;;;28.10;45.95;101279.25;5065844;28;20024;-71
2022/09/07 03:31:36;;;;;;;3.97;2.60;;;;;;;28.32;44.63;101275.75;5050724;28;20020;-71
2022/09/07 03:34:02;;;;;;;2.60;2.38;;;;;;;28.13;45.08;101270.94;5034206;28;20124;-71
2022/09/07 03:36:31;;;;;;;2.30;2.03;;;;;;;28.41;44.05;101264.28;5051574;28;20057;-71
2022/09/07 03:38:58;;;;;;;4.60;2.20;;;;;;;28.19;44.55;101265.09;5046323;28;20032;-72
2022/09/07 03:41:24;;;;;;;4.82;2.58;;;;;;;28.22;44.58;101269.34;5045223;28;20033;-70
2022/09/07 03:43:50;;;;;;;4.68;2.40;;;;;;;27.53;45.42;101270.97;5057467;28;20036;-71
2022/09/07 03:46:18;;;;;;;3.33;2.45;;;;;;;28.00;44.74;101270.19;5053354;28;20136;-71
2022/09/07 03:48:45;;;;;;;4.07;2.50;;;;;;;27.90;44.51;101270.88;5043765;28;20417;-71
2022/09/07 03:51:11;;;;;;;3.25;2.58;;;;;;;27.88;45.07;101278.19;5047862;28;20388;-71
2022/09/07 03:53:40;;;;;;;2.80;2.40;;;;;;;28.05;44.80;101268.00;5032587;28;20492;-71
2022/09/07 03:56:07;;;;;;;5.43;2.67;;;;;;;28.13;44.77;101273.63;5032539;28;20471;-73
2022/09/07 03:58:33;;;;;;;5.18;3.00;;;;;;;28.07;44.60;101274.13;5053410;28;20034;-71
2022/09/07 04:01:03;;;;;;;3.17;2.55;;;;;;;27.78;44.86;101290.59;5032249;28;20032;-71
2022/09/07 04:03:29;;;;;;;3.70;2.70;;;;;;;27.82;44.80;101289.41;5034236;28;20551;-71
2022/09/07 04:05:57;;;;;;;3.30;2.85;;;;;;;27.89;44.77;101285.28;5065801;28;20167;-71
2022/09/07 04:08:27;;;;;;;6.70;2.83;;;;;;;27.58;45.86;101292.09;5067993;28;20786;-71
2022/09/07 04:10:58;;;;;;;4.75;3.03;;;;;;;27.62;46.06;101295.44;5055784;28;20032;-70
2022/09/07 04:13:24;;;;;;;4.68;2.78;;;;;;;26.90;47.01;101292.53;5049596;28;20369;-71
2022/09/07 04:15:50;;;;;;;3.28;2.60;;;;;;;27.47;45.58;101287.53;5066234;28;20400;-71
2022/09/07 04:18:15;;;;;;;3.40;3.08;;;;;;;26.81;47.08;101293.19;5044214;28;20036;-70
2022/09/07 04:20:41;;;;;;;2.60;2.40;;;;;;;27.93;44.62;101296.63;5054252;28;20020;-71
2022/09/07 04:23:06;;;;;;;5.65;3.28;;;;;;;27.78;45.22;101304.03;5045469;28;20131;-71
2022/09/07 04:25:31;;;;;;;4.25;3.83;;;;;;;26.41;48.11;101291.47;5073025;28;20408;-70
2022/09/07 04:27:57;;;;;;;4.72;4.07;;;;;;;26.84;47.52;101287.59;5046149;28;20388;-71
2022/09/07 04:30:23;;;;;;;4.30;3.90;;;;;;;27.26;46.21;101288.13;5072026;28;20364;-70
2022/09/07 04:32:48;;;;;;;10.13;4.63;;;;;;;27.83;45.06;101280.34;5056828;28;20052;-71
2022/09/07 04:35:14;;;;;;;6.97;6.28;;;;;;;27.75;45.19;101285.44;5045201;28;20131;-71
2022/09/07 04:37:39;;;;;;;8.13;6.20;;;;;;;27.79;44.58;101270.81;5041260;28;20086;-71
2022/09/07 04:40:05;;;;;;;8.05;6.28;;;;;;;27.41;45.55;101286.16;5065296;28;20115;-71
2022/09/07 04:42:30;;;;;;;7.32;6.47;;;;;;;26.67;47.62;101280.72;5071455;28;20033;-71
2022/09/07 04:44:56;;;;;;;10.52;6.53;;;;;;;26.87;47.21;101276.66;5061988;28;20038;-72
2022/09/07 04:47:21;;;;;;;9.52;7.18;;;;;;;27.18;46.46;101274.41;5061145;28;20044;-71
2022/09/07 04:49:51;;;;;;;6.85;6.20;;;;;;;27.57;45.15;101276.97;5087969;28;20039;-72
2022/09/07 04:52:17;;;;;;;10.98;7.85;;;;;;;26.60;47.76;101271.44;5075744;28;20024;-71
2022/09/07 04:54:43;;;;;;;8.48;7.30;;;;;;;26.86;47.02;101274.94;5087747;28;20502;-70
2022/09/07 04:57:10;;;;;;;9.85;7.40;;;;;;;26.36;47.28;101277.53;5072998;28;20033;-71
2022/09/07 04:59:35;;;;;;;8.70;6.90;;;;;;;27.06;46.25;101269.94;5074944;28;20464;-71
2022/09/07 05:02:00;;;;;;;8.98;6.70;;;;;;;26.99;46.43;101266.00;5064573;28;20029;-71
2022/09/07 05:04:26;;;;;;;9.50;6.90;;;;;;;26.95;46.07;101256.47;5074865;28;20135;-71
2022/09/07 05:06:54;;;;;;;8.57;6.82;;;;;;;27.44;45.47;101258.25;5087164;28;20502;-71
2022/09/07 05:09:19;;;;;;;10.73;6.97;;;;;;;26.70;46.65;101263.59;5084715;28;20061;-71
2022/09/07 05:11:45;;;;;;;8.25;6.43;;;;;;;27.11;45.82;101259.75;5093873;28;20506;-71
2022/09/07 05:14:10;;;;;;;7.72;6.90;;;;;;;26.95;45.95;101272.56;5068275;28;20468;-71
2022/09/07 05:16:36;;;;;;;8.82;7.20;;;;;;;27.36;45.37;101282.13;5081192;28;20107;-71
2022/09/07 05:19:03;;;;;;;9.80;6.60;;;;;;;27.22;45.47;101265.16;5082689;28;20472;-71
2022/09/07 05:21:32;;;;;;;9.32;6.40;;;;;;;27.00;45.98;101260.53;5076108;28;20097;-71
2022/09/07 05:23:59;;;;;;;7.78;6.90;;;;;;;27.02;45.92;101257.72;5084825;28;20094;-71
2022/09/07 05:26:27;;;;;;;7.72;6.63;;;;;;;27.20;45.26;101261.75;5058245;28;20491;-71
2022/09/07 05:28:53;;;;;;;9.80;5.75;;;;;;;26.78;46.65;101261.22;5087365;28;20032;-71
2022/09/07 05:31:21;;;;;;;7.20;6.05;;;;;;;27.34;45.34;101257.16;5057124;28;20407;-71
2022/09/07 05:33:52;;;;;;;8.43;6.50;;;;;;;27.23;45.38;101264.22;5073108;28;20483;-71
2022/09/07 05:36:17;;;;;;;7.75;6.35;;;;;;;27.49;44.84;101265.94;5090159;28;20121;-71
2022/09/07 05:38:43;;;;;;;7.45;5.88;;;;;;;27.15;45.55;101273.78;5084619;28;20471;-71
2022/09/07 05:41:17;;;;;;;8.55;6.00;;;;;;;27.14;45.71;101278.28;5055508;28;20033;-72
2022/09/07 05:43:43;;;;;;;7.00;5.88;;;;;;;27.18;45.26;101285.16;5054505;28;20404;-71
2022/09/07 05:46:09;;;;;;;7.97;5.97;;;;;;;27.41;44.82;101279.94;5053686;28;20060;-71
2022/09/07 05:48:35;;;;;;;9.02;5.90;;;;;;;27.35;44.83;101293.78;5087885;28;20054;-71
2022/09/07 05:51:00;;;;;;;9.10;5.95;;;;;;;26.98;45.41;101293.78;5073993;28;20472;-71
2022/09/07 05:53:26;;;;;;;7.78;5.75;;;;;;;27.08;45.53;101295.69;5072396;28;20105;-71
2022/09/07 05:55:52;;;;;;;6.55;5.43;;;;;;;27.09;45.74;101291.19;5072230;28;20044;-71
2022/09/07 05:58:18;;;;;;;7.70;5.20;;;;;;;27.11;45.43;101299.09;5085366;28;20527;-71
2022/09/07 06:00:44;;;;;;;8.80;5.47;;;;;;;27.39;45.29;101298.81;5092837;28;20027;-71
2022/09/07 06:03:10;;;;;;;6.40;5.80;;;;;;;27.38;45.23;101294.47;5075086;28;20028;-71
2022/09/07 06:05:36;;;;;;;6.45;4.60;;;;;;;27.52;44.95;101298.78;5061718;28;20396;-71
2022/09/07 06:08:02;;;;;;;6.10;5.30;;;;;;;27.26;45.39;101293.50;5053053;28;20043;-72
2022/09/07 06:10:30;;;;;;;9.02;5.82;;;;;;;27.68;45.06;101295.78;5062660;28;20038;-71
2022/09/07 06:12:55;;;;;;;8.95;5.65;;;;;;;27.78;44.70;101298.66;5080248;28;20046;-71
2022/09/07 06:15:21;;;;;;;9.10;5.57;;;;;;;27.76;44.61;101297.91;5063219;28;20535;-71
2022/09/07 06:17:46;;;;;;;10.35;5.85;;;;;;;27.79;44.73;101305.72;5058388;28;20029;-74
2022/09/07 06:20:11;;;;;;;7.25;5.72;;;;;;;27.49;45.32;101312.44;5072938;28;20134;-71
2022/09/07 06:22:37;;;;;;;9.30;6.45;;;;;;;26.97;46.78;101314.41;5061837;28;20028;-71
2022/09/07 06:25:03;;;;;;;10.98;6.13;;;;;;;27.65;45.76;101314.81;5068993;28;20032;-71
2022/09/07 06:27:29;;;;;;;8.82;7.05;;;;;;;27.27;46.98;101318.47;5060576;28;20115;-71
2022/09/07 06:29:54;;;;;;;8.15;6.45;;;;;;;27.07;47.01;101314.59;5070873;28;20127;-71
2022/09/07 06:32:20;;;;;;;7.85;6.43;;;;;;;27.95;45.53;101320.69;5087770;28;20482;-71
2022/09/07 06:34:46;;;;;;;7.28;6.57;;;;;;;28.13;45.22;101305.03;5059223;28;20510;-72
2022/09/07 06:37:11;;;;;;;13.02;6.80;;;;;;;27.55;46.28;101320.03;5083629;28;20032;-72
2022/09/07 06:39:36;;;;;;;9.50;6.28;;;;;;;28.44;45.03;101317.78;5055456;28;20059;-72
2022/09/07 06:42:03;;;;;;;10.55;7.55;;;;;;;28.43;45.49;101326.81;5048900;28;20548;-73
2022/09/07 06:44:29;;;;;;;15.43;9.23;;;;;;;28.50;45.17;101315.59;5058784;28;20466;-72
2022/09/07 06:46:57;;;;;;;11.20;9.13;;;;;;;28.15;45.76;101328.13;5066781;28;20489;-72
2022/09/07 06:49:23;;;;;;;15.27;9.15;;;;;;;28.00;45.88;101326.59;5034955;28;20029;-73
2022/09/07 06:51:49;;;;;;;11.93;9.10;;;;;;;27.42;47.72;101319.22;5033586;28;20043;-72
2022/09/07 06:54:14;;;;;;;13.10;10.05;;;;;;;27.76;46.64;101327.44;5037570;28;20028;-72
2022/09/07 06:56:40;;;;;;;11.55;9.98;;;;;;;27.92;46.87;101332.53;5051073;28;20029;-72
2022/09/07 06:59:06;;;;;;;14.52;11.05;;;;;;;26.27;53.80;101325.53;5034001;28;20119;-72
2022/09/07 07:01:32;;;;;;;17.58;11.07;;;;;;;25.69;54.56;101325.78;5059000;28;20020;-72
2022/09/07 07:04:00;;;;;;;14.63;10.23;;;;;;;26.74;51.87;101337.50;5070574;28;20032;-71
2022/09/07 07:06:36;;;;;;;17.45;10.75;;;;;;;26.36;52.80;101340.97;5053963;28;20116;-72
2022/09/07 07:09:03;;;;;;;16.33;11.77;;;;;;;27.21;50.75;101341.25;5039789;28;20027;-72
2022/09/07 07:11:30;;;;;;;15.02;11.10;;;;;;;27.62;48.91;101346.44;5035845;28;20384;-71
2022/09/07 07:13:56;;;;;;;14.23;10.95;;;;;;;28.37;46.65;101345.25;5048212;28;20023;-72
2022/09/07 07:16:21;;;;;;;11.88;9.80;;;;;;;28.75;46.51;101342.25;5034661;28;20024;-71
2022/09/07 07:18:51;;;;;;;13.82;10.25;;;;;;;26.68;50.51;101356.63;5043364;28;20107;-72
2022/09/07 07:21:17;;;;;;;15.25;10.55;;;;;;;26.97;51.28;101360.00;5071763;28;20102;-72
2022/09/07 07:23:43;;;;;;;11.80;9.82;;;;;;;27.83;47.54;101354.69;5057324;28;20020;-72
2022/09/07 07:26:12;;;;;;;11.98;9.35;;;;;;;27.79;49.09;101351.38;5033046;28;20523;-71
2022/09/07 07:28:42;;;;;;;13.73;9.38;;;;;;;28.45;45.98;101342.81;5054610;28;20028;-72
2022/09/07 07:31:09;;;;;;;12.68;9.32;;;;;;;28.36;46.14;101330.13;5052711;28;20083;-72
2022/09/07 07:33:35;;;;;;;11.48;8.57;;;;;;;28.78;45.47;101330.41;5033677;28;20059;-72
2022/09/07 07:36:14;;;;;;;14.35;9.05;;;;;;;29.50;43.19;101337.22;5038279;28;20052;-71
2022/09/07 07:38:41;;;;;;;12.15;9.07;;;;;;;26.72;48.65;101355.50;5053267;28;20101;-72
2022/09/07 07:41:06;;;;;;;11.27;8.77;;;;;;;27.68;47.88;101362.06;5051650;28;20115;-71
2022/09/07 07:43:32;;;;;;;11.48;9.60;;;;;;;30.43;42.54;101362.66;5047254;28;20112;-72
2022/09/07 07:45:58;;;;;;;12.45;9.85;;;;;;;29.79;43.78;101358.16;5054254;28;20051;-71
2022/09/07 07:48:25;;;;;;;16.70;8.50;;;;;;;31.46;39.13;101362.66;5076100;28;20480;-71
2022/09/07 07:51:05;;;;;;;11.77;8.82;;;;;;;29.37;43.64;101368.81;5050449;28;20028;-72
2022/09/07 07:53:36;;;;;;;9.90;8.80;;;;;;;27.87;46.34;101369.63;5030978;28;20651;-72
2022/09/07 07:56:03;;;;;;;13.32;8.77;;;;;;;27.22;48.22;101372.50;5057714;28;20066;-71
2022/09/07 07:58:30;;;;;;;12.05;8.82;;;;;;;28.39;46.84;101367.50;5035722;28;20029;-72
2022/09/07 08:01:11;;;;;;;9.82;8.27;;;;;;;29.47;42.38;101359.00;5038174;28;20028;-72
2022/09/07 08:03:38;;;;;;;10.38;8.45;;;;;;;29.01;43.24;101360.00;5053413;28;20040;-71
2022/09/07 08:06:07;;;;;;;9.75;8.55;;;;;;;27.91;46.49;101371.09;5040819;28;20062;-71
2022/09/07 08:08:34;;;;;;;10.68;8.30;;;;;;;30.82;41.27;101356.63;5041974;28;20028;-72
2022/09/07 08:11:07;;;;;;;10.13;8.93;;;;;;;30.51;40.15;101356.59;5051628;28;20031;-72
2022/09/07 08:13:34;;;;;;;12.82;9.32;;;;;;;29.83;41.34;101359.63;5070741;28;20332;-71
2022/09/07 08:16:00;;;;;;;8.73;7.80;;;;;;;31.05;40.01;101356.44;5060235;28;20032;-71
2022/09/07 08:18:26;;;;;;;9.63;8.02;;;;;;;30.50;41.13;101357.63;5033665;28;20124;-72
2022/09/07 08:20:51;;;;;;;9.10;7.88;;;;;;;29.71;42.38;101353.41;5032592;28;20027;-72
2022/09/07 08:23:19;;;;;;;9.45;7.88;;;;;;;28.90;44.56;101350.94;5032567;28;20029;-71
2022/09/07 08:26:03;;;;;;;8.35;7.45;;;;;;;30.32;41.01;101356.47;5034122;28;20078;-72
2022/09/07 08:28:31;;;;;;;8.73;7.38;;;;;;;29.81;43.14;101356.19;5042461;28;20465;-74
2022/09/07 08:30:57;;;;;;;9.65;8.15;;;;;;;29.80;42.09;101357.19;5051969;28;20107;-71
2022/09/07 08:33:23;;;;;;;9.00;7.15;;;;;;;29.35;43.41;101354.63;5061278;28;20036;-71
2022/09/07 08:36:01;;;;;;;10.55;6.90;;;;;;;29.79;41.87;101345.53;5052395;28;20056;-72
2022/09/07 08:38:31;;;;;;;8.10;7.05;;;;;;;31.21;40.04;101343.28;5031784;28;20838;-71
2022/09/07 08:40:57;;;;;;;9.80;6.82;;;;;;;31.71;39.34;101347.81;5039084;28;20477;-72
2022/09/07 08:43:38;;;;;;;10.60;6.63;;;;;;;31.80;38.23;101348.81;5049996;28;20549;-72
2022/09/07 08:46:14;;;;;;;10.25;6.80;;;;;;;31.99;39.50;101352.50;5043823;28;20044;-71
2022/09/07 08:48:40;;;;;;;9.57;6.07;;;;;;;32.92;37.25;101342.78;5050079;28;20467;-71
2022/09/07 08:51:18;;;;;;;9.15;6.10;;;;;;;32.62;36.69;101338.47;5050615;28;20126;-72
2022/09/07 08:53:45;;;;;;;9.07;6.63;;;;;;;31.01;39.54;101341.50;5049776;28;20081;-71
2022/09/07 08:56:25;;;;;;;9.45;6.75;;;;;;;30.78;40.18;101339.00;5053340;28;20083;-72
2022/09/07 08:58:52;;;;;;;6.65;6.00;;;;;;;29.96;42.23;101332.50;5036072;28;20465;-72
2022/09/07 09:01:31;;;;;;;7.07;5.55;;;;;;;30.34;41.26;101341.88;5036512;28;20033;-71
2022/09/07 09:03:57;;;;;;;8.02;6.00;;;;;;;30.95;40.05;101330.28;5052660;28;20090;-71
2022/09/07 09:06:26;;;;;;;8.95;5.82;;;;;;;28.88;43.08;101342.16;5067652;28;20497;-71
2022/09/07 09:09:24;;;;;;;9.20;5.60;;;;;;;30.21;41.89;101341.22;5073618;28;20055;-72
2022/09/07 09:12:07;;;;;;;9.30;5.38;;;;;;;30.70;41.25;101341.53;5039622;28;20044;-71
2022/09/07 09:14:35;;;;;;;7.72;5.15;;;;;;;30.45;39.58;101339.13;5064127;28;20473;-72
2022/09/07 09:17:16;;;;;;;9.23;4.70;;;;;;;29.00;42.98;101350.22;5040127;28;20035;-71
2022/09/07 09:19:47;;;;;;;6.55;3.35;;;;;;;31.02;39.11;101345.91;5073841;28;20059;-71
2022/09/07 09:22:25;;;;;;;10.85;4.15;;;;;;;29.75;41.08;101346.78;5055909;28;20082;-71
2022/09/07 09:25:01;;;;;;;9.20;3.90;;;;;;;29.48;41.94;101352.63;5053288;28;20152;-71
2022/09/07 09:27:26;;;;;;;8.40;3.90;;;;;;;29.44;42.01;101356.53;5042096;28;20032;-71
2022/09/07 09:29:51;;;;;;;7.60;4.00;;;;;;;30.26;40.46;101350.59;5050590;28;20507;-72
2022/09/07 09:32:32;;;;;;;8.82;3.78;;;;;;;32.00;36.79;101344.25;5067553;28;20017;-71
2022/09/07 09:35:14;;;;;;;8.38;3.13;;;;;;;30.40;39.76;101357.50;5061510;28;20028;-71
2022/09/07 09:37:41;;;;;;;11.45;3.20;;;;;;;28.17;42.97;101347.66;5052541;28;20017;-71
2022/09/07 09:40:18;;;;;;;4.47;2.50;;;;;;;30.78;39.22;101342.53;5061388;28;20402;-71
2022/09/07 09:42:43;;;;;;;5.68;2.42;;;;;;;30.83;38.14;101336.75;5053771;28;20027;-71
2022/09/07 09:45:20;;;;;;;4.13;2.08;;;;;;;32.32;35.81;101339.53;5051117;28;20392;-71
2022/09/07 09:47:51;;;;;;;5.07;1.77;;;;;;;30.11;39.65;101339.28;5055668;28;20116;-71
2022/09/07 09:50:20;;;;;;;5.45;2.47;;;;;;;30.78;38.41;101330.91;5036547;28;20493;-72
2022/09/07 09:52:47;;;;;;;9.00;2.67;;;;;;;30.08;39.41;101336.03;5052104;28;20029;-71
2022/09/07 09:55:26;;;;;;;3.85;1.67;;;;;;;31.47;37.25;101340.06;5047309;28;20024;-71
2022/09/07 09:58:03;;;;;;;3.60;1.40;;;;;;;30.78;37.20;101333.59;5043703;28;20385;-72
2022/09/07 10:00:31;;;;;;;6.38;1.70;;;;;;;29.74;39.15;101331.59;5051350;28;20375;-71
2022/09/07 10:03:17;;;;;;;8.82;1.67;;;;;;;29.02;39.75;101337.53;5051541;28;20025;-71
2022/09/07 10:05:45;;;;;;;6.95;1.80;;;;;;;30.43;38.41;101335.69;5051581;28;20033;-71
2022/09/07 10:08:18;;;;;;;4.25;1.70;;;;;;;31.70;35.74;101340.69;5037025;28;20031;-71
2022/09/07 10:11:07;;;;;;;5.75;2.38;;;;;;;29.70;39.02;101337.38;5058829;28;20055;-71
2022/09/07 10:13:45;;;;;;;7.13;2.22;;;;;;;29.90;38.89;101333.06;5052203;28;20649;-71
2022/09/07 10:16:11;;;;;;;5.60;1.55;;;;;;;28.65;39.57;101340.47;5034402;28;20500;-71
2022/09/07 10:18:53;;;;;;;6.57;1.92;;;;;;;30.25;38.01;101335.44;5053419;28;20024;-71
2022/09/07 10:21:31;;;;;;;6.10;1.90;;;;;;;29.61;39.12;101334.47;5035411;28;20067;-71
2022/09/07 10:23:58;;;;;;;8.07;1.80;;;;;;;30.41;38.28;101326.00;5064694;28;20033;-72
2022/09/07 10:26:36;;;;;;;7.25;2.03;;;;;;;31.73;35.73;101331.47;5055999;28;20032;-71
2022/09/07 10:29:12;;;;;;;9.93;2.30;;;;;;;28.95;40.50;101334.47;5050877;28;20112;-71
2022/09/07 10:31:43;;;;;;;7.65;2.35;;;;;;;29.48;38.91;101325.69;5034648;28;20042;-71
2022/09/07 10:34:38;;;;;;;6.13;1.90;;;;;;;30.34;36.63;101325.69;5041585;28;20028;-71
2022/09/07 10:37:09;;;;;;;7.78;1.48;;;;;;;30.33;37.47;101323.97;5016841;28;20036;-71
2022/09/07 10:40:05;;;;;;;7.38;1.77;;;;;;;29.93;38.81;101328.25;5039419;28;20436;-71
2022/09/07 10:42:39;;;;;;;7.63;1.40;;;;;;;29.02;39.93;101327.59;5037469;28;20037;-72
2022/09/07 10:45:18;;;;;;;6.50;1.42;;;;;;;28.61;40.29;101329.88;5053595;28;20081;-71
2022/09/07 10:47:58;;;;;;;8.40;1.58;;;;;;;28.65;40.72;101327.00;5072169;28;20048;-72
2022/09/07 10:50:43;;;;;;;7.25;1.52;;;;;;;28.95;40.66;101331.78;5054316;28;20068;-71
2022/09/07 10:53:51;;;;;;;10.10;1.70;;;;;;;29.87;38.79;101328.78;5051737;28;20361;-71
2022/09/07 10:56:23;;;;;;;5.65;1.30;;;;;;;30.29;37.75;101318.00;5051137;28;20044;-71
2022/09/07 10:59:21;;;;;;;6.45;1.40;;;;;;;31.82;35.13;101322.50;5053489;28;20036;-71
2022/09/07 11:01:57;;;;;;;6.80;1.65;;;;;;;30.62;36.92;101317.91;5054128;28;20051;-71
2022/09/07 11:05:07;;;;;;;7.22;2.05;;;;;;;30.71;37.00;101321.66;5038833;28;20071;-71
2022/09/07 11:08:03;;;;;;;11.40;1.83;;;;;;;31.07;36.75;101316.69;5038570;28;20021;-71
2022/09/07 11:10:39;;;;;;;6.63;2.15;;;;;;;29.79;38.81;101315.91;5045954;28;20032;-71
2022/09/07 11:13:10;;;;;;;5.38;1.60;;;;;;;29.34;39.24;101316.06;5040910;28;20496;-71
2022/09/07 11:15:43;;;;;;;8.00;1.40;;;;;;;31.52;36.06;101310.81;5043973;28;20020;-71
2022/09/07 11:18:22;;;;;;;4.47;1.50;;;;;;;31.51;35.24;101309.09;5043706;28;20016;-72
2022/09/07 11:20:55;;;;;;;9.27;2.10;;;;;;;31.17;37.25;101316.72;5053396;28;20115;-71
2022/09/07 11:23:42;;;;;;;6.30;2.00;;;;;;;32.44;33.88;101305.91;5068235;28;20033;-70
2022/09/07 11:26:36;;;;;;;7.32;1.48;;;;;;;32.47;33.03;101306.44;5037606;28;20078;-71
2022/09/07 11:29:10;;;;;;;6.22;1.40;;;;;;;32.88;31.18;101308.00;5044413;28;20021;-71
2022/09/07 11:31:51;;;;;;;5.88;1.45;;;;;;;31.44;34.16;101303.41;5050917;28;20033;-71
2022/09/07 11:34:30;;;;;;;5.53;1.55;;;;;;;30.49;35.24;101312.75;5051316;28;20525;-72
2022/09/07 11:37:05;;;;;;;5.40;1.20;;;;;;;32.51;32.32;101301.63;5033353;28;20033;-71
2022/09/07 11:39:42;;;;;;;5.35;1.60;;;;;;;31.21;34.27;101313.59;5051282;28;20100;-71
2022/09/07 11:42:22;;;;;;;9.55;1.80;;;;;;;32.33;31.71;101308.78;5053078;28;20037;-71
2022/09/07 11:44:58;;;;;;;5.68;1.10;;;;;;;31.82;32.26;101311.69;5050637;28;20021;-71